createdAt,value
2018-02-12T00:00:41.912Z,100159.27
2018-02-12T00:03:11.824Z,100160.95
2018-02-12T00:05:40.141Z,100164.15
2018-02-12T00:08:11.639Z,100169.48
2018-02-12T00:10:39.959Z,100169.97
2018-02-12T00:13:11.261Z,100176.78
2018-02-12T00:15:39.583Z,100176.38
2018-02-12T00:18:15.934Z,100179.52
2018-02-12T00:20:44.262Z,100182.09
2018-02-12T00:23:12.730Z,100179.97
2018-02-12T00:25:41.432Z,100180.73
2018-02-12T00:28:13.533Z,100188.28
2018-02-12T00:30:41.816Z,100188.64
2018-02-12T00:33:13.627Z,100186.67
2018-02-12T00:35:42.646Z,100191.69
2018-02-12T00:38:12.685Z,100194.74
2018-02-12T00:40:41.627Z,100197.56
2018-02-12T00:43:15.171Z,100196.30
2018-02-12T00:45:49.799Z,100201.45
2018-02-12T00:48:20.854Z,100196.78
2018-02-12T00:50:52.163Z,100200.59
2018-02-12T00:53:22.990Z,100202.53
2018-02-12T00:55:53.737Z,100209.97
2018-02-12T00:58:22.343Z,100210.34
2018-02-12T01:00:50.710Z,100208.50
2018-02-12T01:03:19.900Z,100210.72
2018-02-12T01:05:50.090Z,100216.93
2018-02-12T01:08:24.190Z,100221.05
2018-02-12T01:10:56.002Z,100224.73
2018-02-12T01:13:24.492Z,100229.22
2018-02-12T01:16:00.222Z,100234.39
2018-02-12T01:18:31.939Z,100243.45
2018-02-12T01:21:02.246Z,100249.50
2018-02-12T01:23:30.618Z,100245.84
2018-02-12T01:26:02.333Z,100249.11
2018-02-12T01:28:31.413Z,100254.40
2018-02-12T01:31:05.241Z,100249.78
2018-02-12T01:33:37.316Z,100248.80
2018-02-12T01:36:07.604Z,100249.21
2018-02-12T01:38:38.849Z,100254.11
2018-02-12T01:41:08.379Z,100257.76
2018-02-12T01:43:38.908Z,100261.69
2018-02-12T01:46:09.544Z,100258.16
2018-02-12T01:48:38.605Z,100262.05
2018-02-12T01:51:08.877Z,100263.36
2018-02-12T01:53:37.615Z,100255.53
2018-02-12T01:56:06.430Z,100260.25
2018-02-12T01:58:39.281Z,100268.61
2018-02-12T02:01:08.251Z,100268.19
2018-02-12T02:03:38.117Z,100259.67
2018-02-12T02:06:08.003Z,100266.78
2018-02-12T02:08:37.741Z,100266.02
2018-02-12T02:11:10.911Z,100273.41
2018-02-12T02:13:40.280Z,100265.20
2018-02-12T02:16:09.166Z,100265.35
2018-02-12T02:18:38.931Z,100276.77
2018-02-12T02:21:11.803Z,100282.82
2018-02-12T02:23:43.517Z,100281.19
2018-02-12T02:26:15.748Z,100281.21
2018-02-12T02:28:50.154Z,100286.38
2018-02-12T02:31:18.645Z,100283.83
2018-02-12T02:33:46.914Z,100281.16
2018-02-12T02:36:15.359Z,100289.62
2018-02-12T02:38:43.632Z,100293.02
2018-02-12T02:41:12.208Z,100300.20
2018-02-12T02:43:41.044Z,100294.30
2018-02-12T02:46:09.289Z,100298.35
2018-02-12T02:48:37.568Z,100293.78
2018-02-12T02:51:06.030Z,100302.58
2018-02-12T02:53:34.307Z,100304.02
2018-02-12T02:56:02.587Z,100300.57
2018-02-12T02:58:30.868Z,100296.25
2018-02-12T03:00:59.432Z,100303.68
2018-02-12T03:03:27.710Z,100304.46
2018-02-12T03:05:56.148Z,100309.76
2018-02-12T03:08:24.463Z,100311.64
2018-02-12T03:10:52.741Z,100303.16
2018-02-12T03:13:21.037Z,100308.06
2018-02-12T03:15:49.318Z,100307.18
2018-02-12T03:18:17.617Z,100305.66
2018-02-12T03:20:45.906Z,100300.69
2018-02-12T03:23:14.199Z,100311.53
2018-02-12T03:25:42.929Z,100311.11
2018-02-12T03:28:12.648Z,100312.47
2018-02-12T03:30:40.973Z,100314.41
2018-02-12T03:33:12.558Z,100314.99
2018-02-12T03:35:40.814Z,100320.25
2018-02-12T03:38:11.904Z,100327.58
2018-02-12T03:40:40.163Z,100327.03
2018-02-12T03:43:11.612Z,100333.61
2018-02-12T03:45:42.060Z,100330.23
2018-02-12T03:48:13.436Z,100339.69
2018-02-12T03:50:41.849Z,100346.06
2018-02-12T03:53:13.910Z,100342.08
2018-02-12T03:55:42.184Z,100351.70
2018-02-12T03:58:12.475Z,100354.84
2018-02-12T04:00:41.572Z,100353.06
2018-02-12T04:03:13.669Z,100359.22
2018-02-12T04:05:42.229Z,100347.10
2018-02-12T04:08:12.068Z,100361.34
2018-02-12T04:10:40.711Z,100360.73
2018-02-12T04:13:12.720Z,100363.31
2018-02-12T04:15:41.023Z,100375.53
2018-02-12T04:18:11.858Z,100376.16
2018-02-12T04:20:40.197Z,100380.77
2018-02-12T04:23:13.445Z,100380.41
2018-02-12T04:25:42.041Z,100382.37
2018-02-12T04:28:12.001Z,100376.45
2018-02-12T04:30:40.322Z,100377.30
2018-02-12T04:33:15.440Z,100380.91
2018-02-12T04:35:43.731Z,100385.33
2018-02-12T04:38:12.053Z,100389.55
2018-02-12T04:40:40.333Z,100392.77
2018-02-12T04:43:11.768Z,100379.27
2018-02-12T04:45:40.793Z,100381.73
2018-02-12T04:48:12.933Z,100385.44
2018-02-12T04:50:41.217Z,100392.48
2018-02-12T04:53:12.996Z,100395.91
2018-02-12T04:55:41.318Z,100397.88
2018-02-12T04:58:13.302Z,100406.02
2018-02-12T05:00:41.573Z,100396.92
2018-02-12T05:03:13.483Z,100403.89
2018-02-12T05:05:41.767Z,100411.88
2018-02-12T05:08:13.875Z,100420.89
2018-02-12T05:10:42.169Z,100415.78
2018-02-12T05:13:12.157Z,100420.03
2018-02-12T05:15:40.446Z,100420.37
2018-02-12T05:18:13.826Z,100423.14
2018-02-12T05:20:42.605Z,100428.06
2018-02-12T05:23:11.934Z,100427.30
2018-02-12T05:25:40.213Z,100429.27
2018-02-12T05:28:12.074Z,100436.05
2018-02-12T05:30:40.399Z,100444.30
2018-02-12T05:33:15.547Z,100436.70
2018-02-12T05:35:43.820Z,100434.43
2018-02-12T05:38:12.721Z,100438.30
2018-02-12T05:40:41.029Z,100443.53
2018-02-12T05:43:13.065Z,100443.61
2018-02-12T05:45:41.349Z,100453.95
2018-02-12T05:48:13.872Z,100447.70
2018-02-12T05:50:42.245Z,100452.73
2018-02-12T05:53:12.444Z,100459.14
2018-02-12T05:55:40.743Z,100459.12
2018-02-12T05:58:12.780Z,100464.58
2018-02-12T06:00:41.210Z,100469.22
2018-02-12T06:03:13.142Z,100472.62
2018-02-12T06:05:41.507Z,100481.39
2018-02-12T06:08:12.843Z,100487.46
2018-02-12T06:10:41.647Z,100488.64
2018-02-12T06:13:13.209Z,100489.06
2018-02-12T06:15:41.471Z,100497.38
2018-02-12T06:18:12.692Z,100490.23
2018-02-12T06:20:41.762Z,100499.47
2018-02-12T06:23:13.436Z,100503.39
2018-02-12T06:25:42.724Z,100512.05
2018-02-12T06:28:11.920Z,100514.87
2018-02-12T06:30:40.297Z,100517.09
2018-02-12T06:33:11.904Z,100522.20
2018-02-12T06:35:40.234Z,100528.91
2018-02-12T06:38:15.490Z,100536.73
2018-02-12T06:40:43.795Z,100539.07
2018-02-12T06:43:12.087Z,100541.34
2018-02-12T06:45:40.414Z,100544.48
2018-02-12T06:48:15.517Z,100541.86
2018-02-12T06:50:43.776Z,100550.34
2018-02-12T06:53:12.080Z,100546.64
2018-02-12T06:55:40.377Z,100552.32
2018-02-12T06:58:15.389Z,100555.44
2018-02-12T07:00:43.700Z,100555.64
2018-02-12T07:03:12.008Z,100568.65
2018-02-12T07:05:40.285Z,100570.77
2018-02-12T07:08:12.113Z,100570.22
2018-02-12T07:10:40.373Z,100574.92
2018-02-12T07:13:12.204Z,100583.56
2018-02-12T07:15:40.733Z,100584.00
2018-02-12T07:18:12.849Z,100587.99
2018-02-12T07:20:41.135Z,100592.20
2018-02-12T07:23:13.480Z,100598.69
2018-02-12T07:25:42.218Z,100599.25
2018-02-12T07:28:12.132Z,100602.47
2018-02-12T07:30:40.448Z,100601.17
2018-02-12T07:33:11.953Z,100615.86
2018-02-12T07:35:40.408Z,100603.48
2018-02-12T07:38:15.411Z,100616.80
2018-02-12T07:40:43.720Z,100615.80
2018-02-12T07:43:12.854Z,100619.83
2018-02-12T07:45:41.150Z,100625.46
2018-02-12T07:48:12.688Z,100631.48
2018-02-12T07:50:41.264Z,100629.09
2018-02-12T07:53:13.225Z,100634.30
2018-02-12T07:55:41.547Z,100640.30
2018-02-12T07:58:14.159Z,100643.67
2018-02-12T08:00:42.622Z,100649.56
2018-02-12T08:03:12.055Z,100657.34
2018-02-12T08:05:40.411Z,100656.59
2018-02-12T08:08:15.424Z,100655.00
2018-02-12T08:10:44.345Z,100662.29
2018-02-12T08:13:12.621Z,100666.52
2018-02-12T08:15:40.900Z,100664.63
2018-02-12T08:18:13.894Z,100673.66
2018-02-12T08:20:42.259Z,100676.39
2018-02-12T08:23:13.546Z,100674.60
2018-02-12T08:25:41.859Z,100681.92
2018-02-12T08:28:15.185Z,100678.17
2018-02-12T08:30:43.473Z,100680.13
2018-02-12T08:33:12.486Z,100684.28
2018-02-12T08:35:40.781Z,100693.45
2018-02-12T08:38:12.809Z,100683.83
2018-02-12T08:40:41.088Z,100691.23
2018-02-12T08:43:11.995Z,100696.56
2018-02-12T08:45:40.263Z,100701.45
2018-02-12T08:48:12.206Z,100703.48
2018-02-12T08:50:40.485Z,100705.64
2018-02-12T08:53:15.838Z,100717.27
2018-02-12T08:55:44.112Z,100713.52
2018-02-12T08:58:12.402Z,100716.94
2018-02-12T09:00:40.679Z,100721.30
2018-02-12T09:03:12.267Z,100716.78
2018-02-12T09:05:40.532Z,100722.02
2018-02-12T09:08:14.957Z,100725.69
2018-02-12T09:10:43.227Z,100723.70
2018-02-12T09:13:12.232Z,100729.55
2018-02-12T09:15:40.517Z,100735.30
2018-02-12T09:18:12.632Z,100735.73
2018-02-12T09:20:40.976Z,100738.00
2018-02-12T09:23:13.045Z,100747.52
2018-02-12T09:25:41.364Z,100738.44
2018-02-12T09:28:14.024Z,100751.25
2018-02-12T09:30:42.305Z,100747.93
2018-02-12T09:33:13.641Z,100756.69
2018-02-12T09:35:41.913Z,100760.34
2018-02-12T09:38:11.976Z,100765.66
2018-02-12T09:40:41.209Z,100764.81
2018-02-12T09:43:12.535Z,100762.64
2018-02-12T09:45:41.123Z,100775.30
2018-02-12T09:48:12.659Z,100783.63
2018-02-12T09:50:40.944Z,100785.84
2018-02-12T09:53:13.297Z,100781.60
2018-02-12T09:55:41.580Z,100797.47
2018-02-12T09:58:13.553Z,100796.30
2018-02-12T10:00:42.308Z,100796.49
2018-02-12T10:03:12.002Z,100796.49
2018-02-12T10:05:40.421Z,100800.21
2018-02-12T10:08:12.317Z,100801.17
2018-02-12T10:10:41.302Z,100803.55
2018-02-12T10:13:13.232Z,100809.48
2018-02-12T10:15:41.520Z,100805.42
2018-02-12T10:18:12.742Z,100806.86
2018-02-12T10:20:41.035Z,100813.52
2018-02-12T10:23:12.484Z,100813.55
2018-02-12T10:25:40.794Z,100821.20
2018-02-12T10:28:12.161Z,100824.55
2018-02-12T10:30:40.472Z,100833.16
2018-02-12T10:33:12.096Z,100835.26
2018-02-12T10:35:40.621Z,100839.34
2018-02-12T10:38:12.641Z,100843.81
2018-02-12T10:40:42.292Z,100844.30
2018-02-12T10:43:12.871Z,100848.75
2018-02-12T10:45:41.136Z,100851.17
2018-02-12T10:48:12.328Z,100851.89
2018-02-12T10:50:41.445Z,100851.79
2018-02-12T10:53:13.720Z,100852.45
2018-02-12T10:55:45.929Z,100847.13
2018-02-12T10:58:14.557Z,100857.06
2018-02-12T11:00:42.849Z,100858.67
2018-02-12T11:03:14.291Z,100850.15
2018-02-12T11:05:42.586Z,100856.39
2018-02-12T11:08:12.469Z,100851.27
2018-02-12T11:10:40.753Z,100851.67
2018-02-12T11:13:14.694Z,100850.55
2018-02-12T11:15:43.024Z,100850.47
2018-02-12T11:18:12.220Z,100859.28
2018-02-12T11:20:40.545Z,100859.32
2018-02-12T11:23:15.685Z,100862.41
2018-02-12T11:25:43.984Z,100864.05
2018-02-12T11:28:12.267Z,100866.33
2018-02-12T11:30:40.633Z,100864.05
2018-02-12T11:33:14.788Z,100868.30
2018-02-12T11:35:43.076Z,100860.30
2018-02-12T11:38:12.259Z,100856.81
2018-02-12T11:40:40.537Z,100862.84
2018-02-12T11:43:15.413Z,100866.37
2018-02-12T11:45:43.689Z,100865.81
2018-02-12T11:48:12.073Z,100869.00
2018-02-12T11:50:40.988Z,100873.99
2018-02-12T11:53:13.012Z,100881.71
2018-02-12T11:55:45.496Z,100872.69
2018-02-12T11:58:13.919Z,100857.65
2018-02-12T12:00:42.199Z,100857.87
2018-02-12T12:03:12.059Z,100873.44
2018-02-12T12:05:41.099Z,100870.72
2018-02-12T12:08:12.115Z,100867.56
2018-02-12T12:10:40.473Z,100865.41
2018-02-12T12:13:15.521Z,100862.73
2018-02-12T12:15:43.790Z,100854.52
2018-02-12T12:18:12.429Z,100863.38
2018-02-12T12:20:40.704Z,100868.63
2018-02-12T12:23:14.743Z,100868.88
2018-02-12T12:25:43.000Z,100863.28
2018-02-12T12:28:12.438Z,100877.23
2018-02-12T12:30:40.700Z,100876.30
2018-02-12T12:33:12.751Z,100880.11
2018-02-12T12:35:40.971Z,100877.35
2018-02-12T12:38:12.123Z,100874.27
2018-02-12T12:40:40.940Z,100878.99
2018-02-12T12:43:12.647Z,100884.05
2018-02-12T12:45:40.913Z,100875.30
2018-02-12T12:48:12.601Z,100871.44
2018-02-12T12:50:41.293Z,100884.06
2018-02-12T12:53:13.600Z,100876.90
2018-02-12T12:55:41.863Z,100876.00
2018-02-12T12:58:13.409Z,100875.95
2018-02-12T13:00:41.704Z,100868.50
2018-02-12T13:03:13.824Z,100853.67
2018-02-12T13:05:42.593Z,100857.95
2018-02-12T13:08:12.321Z,100860.95
2018-02-12T13:10:40.624Z,100863.75
2018-02-12T13:13:13.635Z,100861.41
2018-02-12T13:15:41.906Z,100856.11
2018-02-12T13:18:14.046Z,100849.41
2018-02-12T13:20:42.320Z,100858.13
2018-02-12T13:23:13.566Z,100861.69
2018-02-12T13:25:41.856Z,100856.51
2018-02-12T13:28:13.070Z,100862.36
2018-02-12T13:30:41.489Z,100869.45
2018-02-12T13:33:13.937Z,100876.16
2018-02-12T13:35:42.178Z,100878.15
2018-02-12T13:38:12.080Z,100876.63
2018-02-12T13:40:40.366Z,100869.29
2018-02-12T13:43:11.798Z,100869.80
2018-02-12T13:45:40.088Z,100873.22
2018-02-12T13:48:12.069Z,100871.84
2018-02-12T13:50:40.505Z,100872.56
2018-02-12T13:53:12.684Z,100872.48
2018-02-12T13:55:41.845Z,100868.98
2018-02-12T13:58:13.157Z,100857.64
2018-02-12T14:00:41.433Z,100870.95
2018-02-12T14:03:13.101Z,100868.77
2018-02-12T14:05:41.489Z,100870.62
2018-02-12T14:08:13.802Z,100881.59
2018-02-12T14:10:42.069Z,100881.73
2018-02-12T14:13:13.958Z,100877.81
2018-02-12T14:15:42.260Z,100877.71
2018-02-12T14:18:15.369Z,100880.81
2018-02-12T14:20:43.669Z,100886.43
2018-02-12T14:23:13.182Z,100880.61
2018-02-12T14:25:41.548Z,100876.09
2018-02-12T14:28:14.256Z,100877.64
2018-02-12T14:30:46.625Z,100885.77
2018-02-12T14:33:14.954Z,100877.48
2018-02-12T14:35:43.191Z,100883.24
2018-02-12T14:38:12.612Z,100885.72
2018-02-12T14:40:40.893Z,100886.55
2018-02-12T14:43:12.099Z,100890.14
2018-02-12T14:45:40.686Z,100893.83
2018-02-12T14:48:12.264Z,100897.67
2018-02-12T14:50:40.568Z,100890.00
2018-02-12T14:53:15.541Z,100898.40
2018-02-12T14:55:44.446Z,100892.41
2018-02-12T14:58:12.671Z,100891.82
2018-02-12T15:00:40.956Z,100894.70
2018-02-12T15:03:13.134Z,100877.86
2018-02-12T15:05:41.401Z,100895.51
2018-02-12T15:08:13.461Z,100900.78
2018-02-12T15:10:41.759Z,100896.65
2018-02-12T15:13:12.933Z,100897.20
2018-02-12T15:15:41.210Z,100903.66
2018-02-12T15:18:12.440Z,100901.27
2018-02-12T15:20:40.714Z,100904.02
2018-02-12T15:23:12.332Z,100929.72
2018-02-12T15:25:40.602Z,100955.67
2018-02-12T15:28:12.336Z,100957.25
2018-02-12T15:30:40.609Z,100983.37
2018-02-12T15:33:11.952Z,100988.84
2018-02-12T15:35:40.228Z,100987.47
2018-02-12T15:38:12.045Z,100984.56
2018-02-12T15:40:40.339Z,100989.33
2018-02-12T15:43:11.097Z,101001.70
2018-02-12T15:45:39.419Z,101007.58
2018-02-12T15:48:13.324Z,101009.30
2018-02-12T15:50:41.812Z,101013.57
2018-02-12T15:53:11.428Z,101007.23
2018-02-12T15:55:39.740Z,101007.75
2018-02-12T15:58:13.810Z,101008.00
2018-02-12T16:00:42.096Z,101004.05
2018-02-12T16:03:11.509Z,101007.41
2018-02-12T16:05:39.813Z,101003.09
2018-02-12T16:08:11.228Z,101006.56
2018-02-12T16:10:39.526Z,101013.06
2018-02-12T16:13:14.722Z,101014.79
2018-02-12T16:15:43.030Z,101010.73
2018-02-12T16:18:11.384Z,101008.93
2018-02-12T16:20:39.660Z,101018.38
2018-02-12T16:23:11.237Z,101023.08
2018-02-12T16:25:39.511Z,101016.83
2018-02-12T16:28:11.208Z,101017.08
2018-02-12T16:30:39.502Z,101016.56
2018-02-12T16:33:14.684Z,101009.83
2018-02-12T16:35:42.954Z,101007.70
2018-02-12T16:38:11.236Z,101005.42
2018-02-12T16:40:39.533Z,101006.14
2018-02-12T16:43:14.572Z,101010.72
2018-02-12T16:45:42.966Z,101010.27
2018-02-12T16:48:11.270Z,101006.44
2018-02-12T16:50:39.554Z,101006.81
2018-02-12T16:53:11.432Z,101011.97
2018-02-12T16:55:39.982Z,101007.37
2018-02-12T16:58:12.618Z,101005.59
2018-02-12T17:00:40.894Z,101017.38
2018-02-12T17:03:12.745Z,101014.58
2018-02-12T17:05:41.052Z,101016.17
2018-02-12T17:08:12.294Z,101017.39
2018-02-12T17:10:40.585Z,101022.39
2018-02-12T17:13:12.029Z,101013.20
2018-02-12T17:15:40.866Z,101023.05
2018-02-12T17:18:11.297Z,101014.95
2018-02-12T17:20:39.592Z,101013.81
2018-02-12T17:23:11.547Z,101019.30
2018-02-12T17:25:39.816Z,101013.91
2018-02-12T17:28:13.769Z,101020.88
2018-02-12T17:30:42.090Z,101025.27
2018-02-12T17:33:11.412Z,101031.14
2018-02-12T17:35:39.910Z,101028.06
2018-02-12T17:38:11.166Z,101028.44
2018-02-12T17:40:39.445Z,101032.49
2018-02-12T17:43:14.722Z,101037.00
2018-02-12T17:45:43.029Z,101041.50
2018-02-12T17:48:11.623Z,101041.98
2018-02-12T17:50:39.907Z,101045.16
2018-02-12T17:53:11.179Z,101046.34
2018-02-12T17:55:39.477Z,101047.85
2018-02-12T17:58:15.121Z,101040.98
2018-02-12T18:00:47.301Z,101045.30
2018-02-12T18:03:15.611Z,101049.53
2018-02-12T18:05:44.158Z,101048.80
2018-02-12T18:08:12.442Z,101046.65
2018-02-12T18:10:40.734Z,101048.16
2018-02-12T18:13:12.944Z,101048.05
2018-02-12T18:15:41.218Z,101060.19
2018-02-12T18:18:14.387Z,101058.43
2018-02-12T18:20:42.788Z,101058.42
2018-02-12T18:23:11.732Z,101053.52
2018-02-12T18:25:40.035Z,101062.08
2018-02-12T18:28:11.521Z,101057.75
2018-02-12T18:30:39.835Z,101066.05
2018-02-12T18:33:11.279Z,101066.19
2018-02-12T18:35:39.558Z,101063.19
2018-02-12T18:38:12.333Z,101057.28
2018-02-12T18:40:40.599Z,101068.48
2018-02-12T18:43:12.825Z,101057.50
2018-02-12T18:45:41.333Z,101062.88
2018-02-12T18:48:13.065Z,101065.50
2018-02-12T18:50:41.357Z,101070.75
2018-02-12T18:53:14.522Z,101069.69
2018-02-12T18:55:42.838Z,101069.00
2018-02-12T18:58:11.201Z,101072.93
2018-02-12T19:00:39.481Z,101074.30
2018-02-12T19:03:11.352Z,101077.05
2018-02-12T19:05:39.646Z,101079.58
2018-02-12T19:08:13.949Z,101074.39
2018-02-12T19:10:42.425Z,101082.81
2018-02-12T19:13:12.310Z,101081.31
2018-02-12T19:15:40.694Z,101083.63
2018-02-12T19:18:12.260Z,101086.00
2018-02-12T19:20:40.727Z,101085.72
2018-02-12T19:23:12.633Z,101083.24
2018-02-12T19:25:40.933Z,101084.44
2018-02-12T19:28:12.129Z,101085.52
2018-02-12T19:30:40.966Z,101077.89
2018-02-12T19:33:11.093Z,101086.34
2018-02-12T19:35:39.623Z,101090.91
2018-02-12T19:38:14.758Z,101086.39
2018-02-12T19:40:43.047Z,101088.73
2018-02-12T19:43:11.352Z,101086.62
2018-02-12T19:45:39.656Z,101092.25
2018-02-12T19:48:12.320Z,101094.89
2018-02-12T19:50:40.612Z,101097.09
2018-02-12T19:53:12.747Z,101096.88
2018-02-12T19:55:41.028Z,101092.99
2018-02-12T19:58:12.236Z,101098.39
2018-02-12T20:00:40.542Z,101100.02
2018-02-12T20:03:11.172Z,101098.41
2018-02-12T20:05:39.452Z,101094.12
2018-02-12T20:08:11.191Z,101097.72
2018-02-12T20:10:39.660Z,101091.25
2018-02-12T20:13:11.036Z,101097.36
2018-02-12T20:15:39.376Z,101091.55
2018-02-12T20:18:10.712Z,101099.73
2018-02-12T20:20:38.992Z,101101.94
2018-02-12T20:23:14.379Z,101102.20
2018-02-12T20:25:42.698Z,101103.17
2018-02-12T20:28:11.722Z,101105.16
2018-02-12T20:30:39.998Z,101110.95
2018-02-12T20:33:12.136Z,101115.28
2018-02-12T20:35:40.465Z,101112.52
2018-02-12T20:38:12.461Z,101114.62
2018-02-12T20:40:40.907Z,101114.89
2018-02-12T20:43:12.968Z,101115.34
2018-02-12T20:45:41.557Z,101118.08
2018-02-12T20:48:11.509Z,101117.80
2018-02-12T20:50:39.788Z,101109.64
2018-02-12T20:53:11.365Z,101115.18
2018-02-12T20:55:39.672Z,101112.52
2018-02-12T20:58:12.680Z,101111.44
2018-02-12T21:00:40.974Z,101114.48
2018-02-12T21:03:11.142Z,101112.42
2018-02-12T21:05:39.437Z,101112.23
2018-02-12T21:08:14.765Z,101112.23
2018-02-12T21:10:43.050Z,101117.97
2018-02-12T21:13:11.340Z,101120.16
2018-02-12T21:15:39.907Z,101120.48
2018-02-12T21:18:11.208Z,101121.98
2018-02-12T21:20:39.481Z,101122.45
2018-02-12T21:23:11.001Z,101125.45
2018-02-12T21:25:39.545Z,101122.97
2018-02-12T21:28:14.712Z,101119.14
2018-02-12T21:30:42.984Z,101121.37
2018-02-12T21:33:11.273Z,101117.75
2018-02-12T21:35:39.581Z,101113.55
2018-02-12T21:38:11.197Z,101115.29
2018-02-12T21:40:39.581Z,101119.91
2018-02-12T21:43:14.714Z,101117.24
2018-02-12T21:45:43.562Z,101123.72
2018-02-12T21:48:11.866Z,101116.21
2018-02-12T21:50:40.157Z,101118.98
2018-02-12T21:53:11.840Z,101118.45
2018-02-12T21:55:40.109Z,101123.56
2018-02-12T21:58:11.937Z,101109.31
2018-02-12T22:00:40.248Z,101115.08
2018-02-12T22:03:11.437Z,101118.77
2018-02-12T22:05:39.936Z,101113.77
2018-02-12T22:08:14.045Z,101113.39
2018-02-12T22:10:43.070Z,101113.60
2018-02-12T22:13:11.355Z,101108.70
2018-02-12T22:15:39.901Z,101117.69
2018-02-12T22:18:11.452Z,101113.23
2018-02-12T22:20:39.741Z,101105.23
2018-02-12T22:23:11.232Z,101110.88
2018-02-12T22:25:39.549Z,101107.41
2018-02-12T22:28:14.754Z,101106.37
2018-02-12T22:30:43.329Z,101102.66
2018-02-12T22:33:11.649Z,101097.18
2018-02-12T22:35:39.921Z,101101.05
2018-02-12T22:38:11.662Z,101095.38
2018-02-12T22:40:39.952Z,101102.36
2018-02-12T22:43:11.228Z,101095.16
2018-02-12T22:45:40.394Z,101100.05
2018-02-12T22:48:11.849Z,101102.06
2018-02-12T22:50:40.142Z,101106.05
2018-02-12T22:53:11.406Z,101102.50
2018-02-12T22:55:39.914Z,101094.98
2018-02-12T22:58:11.845Z,101099.08
2018-02-12T23:00:40.128Z,101105.27
2018-02-12T23:03:11.414Z,101110.45
2018-02-12T23:05:39.910Z,101108.25
2018-02-12T23:08:11.842Z,101106.53
2018-02-12T23:10:40.121Z,101100.22
2018-02-12T23:13:11.444Z,101102.55
2018-02-12T23:15:39.849Z,101099.13
2018-02-12T23:18:13.920Z,101104.45
2018-02-12T23:20:42.885Z,101105.22
2018-02-12T23:23:11.283Z,101103.92
2018-02-12T23:25:39.557Z,101109.72
2018-02-12T23:28:11.321Z,101105.59
2018-02-12T23:30:39.622Z,101107.69
2018-02-12T23:33:14.647Z,101105.14
2018-02-12T23:35:43.825Z,101105.34
2018-02-12T23:38:12.098Z,101104.98
2018-02-12T23:40:42.922Z,101108.05
2018-02-12T23:43:12.951Z,101104.42
2018-02-12T23:45:43.024Z,101097.36
2018-02-12T23:48:12.371Z,101100.78
2018-02-12T23:50:42.371Z,101103.78
2018-02-12T23:53:13.234Z,101101.89
2018-02-12T23:55:43.695Z,101098.35
2018-02-12T23:58:15.976Z,101100.05
